Terminal Aerodrome Forecast
Issued by NWS Anchorage, AK

Home | Current Version | Previous Version | Text Only | Print | Product List | Glossary On
Versions: 1 2 3 4 5 6 7 8 9 10 11 12 13 14 15 16 17 18 19 20 21 22 23 24 25 26 27 28 29 30 31 32 33 34 35 36 37 38 39 40 41 42 43 44 45 46 47 48 49 50
190
FTAK31 PANC 221604 AAB
TAFANC
TAF AMD
PANC 221604Z 2216/2318 VRB03KT P6SM VCFG FEW001 SCT010 BKN090
      TEMPO 2216/2218 BKN009
     FM221800 30005KT P6SM FEW060 SCT100
     FM230000 28006KT P6SM SCT050
     FM230900 16005KT P6SM BKN050=

USA.gov is the U.S. government's official web portal to all federal, state and local government web resources and services.